Terminal Aerodrome Forecast
Issued by NWS

Home | Current Version | Previous Version | Text Only | Print | Product List | Glossary On
Versions: 1 2 3 4 5 6 7 8 9 10 11 12 13
000
FTUS45 KGJT 262340
TAFCNY
TAF
KCNY 262340Z 2700/2724 28008KT P6SM BKN100
     FM270800 VRB03KT P6SM BKN100
     FM271600 16007KT P6SM VCSH BKN090
     FM271900 21012G23KT P6SM VCSH BKN080=

USA.gov is the U.S. government's official web portal to all federal, state and local government web resources and services.